Time;durP1;ratioP1;P1;durP2;ratioP2;P2;SDS_P1;SDS_P2;PMS_P1;PMS_P2;Temp;Humidity;BMP_temperature;BMP_pressure;BME280_temperature;BME280_humidity;BME280_pressure;Samples;Min_cycle;Max_cycle;Signal;HPM_P1;HPM_P2
2022/12/09 00:01:49;;;;;;;65.37;33.03;;;2.10;99.90;;;;;;5114056;28;20188;-68
2022/12/09 00:04:16;;;;;;;64.37;33.80;;;2.10;99.90;;;;;;5114313;28;20172;-68
2022/12/09 00:06:41;;;;;;;60.90;36.43;;;2.10;99.90;;;;;;5113832;28;20171;-69
2022/12/09 00:09:12;;;;;;;52.80;31.03;;;2.10;99.90;;;;;;5113759;28;20200;-68
2022/12/09 00:11:38;;;;;;;57.53;32.57;;;2.10;99.90;;;;;;5113717;28;20207;-68
2022/12/09 00:14:04;;;;;;;75.70;36.00;;;2.10;99.90;;;;;;5113887;28;20175;-68
2022/12/09 00:16:29;;;;;;;63.60;35.27;;;2.10;99.90;;;;;;5113766;28;20196;-68
2022/12/09 00:18:56;;;;;;;65.93;35.17;;;2.00;99.90;;;;;;5113773;28;20247;-68
2022/12/09 00:21:33;;;;;;;68.57;34.07;;;2.00;99.90;;;;;;5113796;28;20193;-68
2022/12/09 00:24:04;;;;;;;54.73;31.30;;;1.90;99.90;;;;;;5114250;28;20608;-68
2022/12/09 00:26:31;;;;;;;50.73;32.03;;;1.90;99.90;;;;;;5113971;28;20173;-68
2022/12/09 00:28:57;;;;;;;57.77;32.77;;;1.80;99.90;;;;;;5112406;28;20204;-68
2022/12/09 00:31:26;;;;;;;55.83;32.70;;;1.80;99.90;;;;;;5113536;28;20617;-69
2022/12/09 00:33:56;;;;;;;61.93;32.90;;;1.70;99.90;;;;;;5113652;28;20578;-68
2022/12/09 00:36:23;;;;;;;64.07;34.37;;;1.70;99.90;;;;;;5113766;28;20169;-68
2022/12/09 00:38:49;;;;;;;62.47;32.27;;;1.70;99.90;;;;;;5113628;28;20203;-68
2022/12/09 00:41:16;;;;;;;54.43;30.77;;;1.60;99.90;;;;;;5113840;28;20230;-68
2022/12/09 00:43:42;;;;;;;60.03;30.73;;;1.50;99.90;;;;;;5112344;28;20173;-68
2022/12/09 00:46:09;;;;;;;53.13;30.43;;;1.50;99.90;;;;;;5113370;28;20196;-68
2022/12/09 00:48:38;;;;;;;54.63;31.90;;;1.40;99.90;;;;;;5113445;28;20248;-68
2022/12/09 00:51:09;;;;;;;45.60;29.37;;;1.30;99.90;;;;;;5112184;28;20169;-68
2022/12/09 00:53:35;;;;;;;49.37;29.23;;;1.30;99.90;;;;;;5113512;28;20183;-68
2022/12/09 00:56:01;;;;;;;45.73;30.77;;;1.30;99.90;;;;;;5112263;28;20548;-68
2022/12/09 00:58:27;;;;;;;54.77;32.63;;;1.30;99.90;;;;;;5113726;28;20187;-68
2022/12/09 01:00:53;;;;;;;47.27;31.00;;;1.30;99.90;;;;;;5113534;28;20251;-68
2022/12/09 01:03:19;;;;;;;56.17;31.33;;;1.30;99.90;;;;;;5113430;28;20247;-68
2022/12/09 01:05:46;;;;;;;54.27;31.30;;;1.30;99.90;;;;;;5113665;28;20180;-68
2022/12/09 01:08:12;;;;;;;55.67;31.57;;;1.30;99.90;;;;;;5113214;28;20206;-68
2022/12/09 01:10:39;;;;;;;49.47;30.00;;;1.30;99.90;;;;;;5112004;28;20220;-68
2022/12/09 01:13:05;;;;;;;53.53;30.97;;;1.30;99.90;;;;;;5113256;28;20189;-68
2022/12/09 01:15:31;;;;;;;54.57;32.40;;;1.40;99.90;;;;;;5113838;28;20267;-68
2022/12/09 01:17:57;;;;;;;53.70;30.03;;;1.40;99.90;;;;;;5115617;28;20184;-68
2022/12/09 01:20:23;;;;;;;49.30;30.53;;;1.40;99.90;;;;;;5115705;28;20233;-68
2022/12/09 01:22:49;;;;;;;47.63;29.17;;;1.40;99.90;;;;;;5116828;28;20553;-68
2022/12/09 01:25:15;;;;;;;46.80;28.47;;;1.40;99.90;;;;;;5115562;28;20184;-68
2022/12/09 01:27:41;;;;;;;49.93;29.47;;;1.50;99.90;;;;;;5115479;28;20203;-68
2022/12/09 01:30:08;;;;;;;45.50;28.57;;;1.50;99.90;;;;;;5116946;28;20199;-68
2022/12/09 01:32:34;;;;;;;51.07;29.87;;;1.50;99.90;;;;;;5116606;27;20301;-68
2022/12/09 01:35:01;;;;;;;51.17;29.37;;;1.50;99.90;;;;;;5116665;28;20258;-68
2022/12/09 01:37:27;;;;;;;52.17;27.47;;;1.50;99.90;;;;;;5115254;28;20203;-68
2022/12/09 01:39:53;;;;;;;44.33;26.67;;;1.50;99.90;;;;;;5116753;28;20653;-68
2022/12/09 01:42:21;;;;;;;44.97;27.83;;;1.50;99.90;;;;;;5116831;28;20672;-68
2022/12/09 01:45:20;;;;;;;46.33;28.97;;;1.60;99.90;;;;;;5116541;28;20176;-68
2022/12/09 01:48:07;;;;;;;46.53;29.87;;;1.60;99.90;;;;;;5116338;28;20196;-68
2022/12/09 01:50:35;;;;;;;50.40;30.37;;;1.60;99.90;;;;;;5117298;28;20632;-68
2022/12/09 01:53:01;;;;;;;51.87;30.87;;;1.50;99.90;;;;;;5117160;28;20237;-68
2022/12/09 01:55:27;;;;;;;53.93;30.07;;;1.50;99.90;;;;;;5117376;28;20215;-68
2022/12/09 01:57:53;;;;;;;52.10;31.27;;;1.50;99.90;;;;;;5117014;28;20195;-68
2022/12/09 02:00:19;;;;;;;57.03;31.20;;;1.40;99.90;;;;;;5116164;28;20229;-68
2022/12/09 02:02:48;;;;;;;55.70;30.07;;;1.40;99.90;;;;;;5116008;28;20563;-68
2022/12/09 02:05:14;;;;;;;51.97;30.30;;;1.40;99.90;;;;;;5116359;28;20560;-68
2022/12/09 02:07:40;;;;;;;55.17;31.57;;;1.40;99.90;;;;;;5115951;28;20219;-68
2022/12/09 02:10:11;;;;;;;47.73;29.87;;;1.50;99.90;;;;;;5116040;28;20640;-68
2022/12/09 02:12:40;;;;;;;53.23;30.80;;;1.50;99.90;;;;;;5115922;28;20211;-68
2022/12/09 02:15:19;;;;;;;47.97;30.93;;;1.50;99.90;;;;;;5115759;28;20168;-68
2022/12/09 02:17:56;;;;;;;43.93;28.43;;;1.50;99.90;;;;;;5115623;28;20187;-68
2022/12/09 02:20:27;;;;;;;46.87;29.23;;;1.50;99.90;;;;;;5116328;28;20165;-68
2022/12/09 02:23:13;;;;;;;49.13;29.03;;;1.60;99.90;;;;;;5114477;28;20196;-68
2022/12/09 02:25:45;;;;;;;53.63;31.77;;;1.60;99.90;;;;;;5114102;28;20185;-68
2022/12/09 02:29:02;;;;;;;50.60;31.03;;;1.60;99.90;;;;;;5115516;28;20192;-68
2022/12/09 02:31:47;;;;;;;52.80;29.67;;;1.60;99.90;;;;;;5091388;28;20205;-68
2022/12/09 02:34:25;;;;;;;50.83;30.47;;;1.60;99.90;;;;;;5114299;28;20175;-68
2022/12/09 02:37:18;;;;;;;52.53;29.00;;;1.60;99.90;;;;;;5115786;28;20153;-68
2022/12/09 02:40:06;;;;;;;58.40;30.33;;;1.50;99.90;;;;;;5115349;28;20206;-68
2022/12/09 02:42:35;;;;;;;46.43;29.53;;;1.50;99.90;;;;;;5114150;28;20216;-68
2022/12/09 02:45:04;;;;;;;48.93;28.10;;;1.60;99.90;;;;;;5115496;28;20651;-68
2022/12/09 02:47:33;;;;;;;49.60;29.90;;;1.60;99.90;;;;;;5115077;28;20241;-68
2022/12/09 02:50:06;;;;;;;42.77;28.33;;;1.60;99.90;;;;;;5114038;28;20264;-68
2022/12/09 02:52:34;;;;;;;53.43;30.77;;;1.60;99.90;;;;;;5114340;28;20665;-68
2022/12/09 02:55:05;;;;;;;54.27;30.23;;;1.60;99.90;;;;;;5114978;28;20164;-68
2022/12/09 02:57:34;;;;;;;53.83;31.90;;;1.60;99.90;;;;;;5113688;28;20610;-68
2022/12/09 03:00:00;;;;;;;52.57;30.60;;;1.50;99.90;;;;;;5115518;28;20175;-68
2022/12/09 03:02:30;;;;;;;52.97;29.90;;;1.50;99.90;;;;;;5114809;28;20577;-68
2022/12/09 03:05:09;;;;;;;55.43;30.30;;;1.60;99.90;;;;;;5113692;28;20288;-68
2022/12/09 03:08:13;;;;;;;54.13;30.57;;;1.60;99.90;;;;;;5113620;28;20273;-68
2022/12/09 03:10:42;;;;;;;52.63;31.63;;;1.50;99.90;;;;;;5097723;28;20226;-69
2022/12/09 03:13:40;;;;;;;52.70;29.50;;;1.50;99.90;;;;;;5113351;28;20218;-68
2022/12/09 03:16:27;;;;;;;56.83;29.90;;;1.40;99.90;;;;;;5114966;28;20157;-68
2022/12/09 03:19:18;;;;;;;58.73;32.33;;;1.40;99.90;;;;;;5114957;28;20161;-68
2022/12/09 03:21:46;;;;;;;49.20;29.30;;;1.40;99.90;;;;;;5114862;28;20203;-68
2022/12/09 03:24:18;;;;;;;49.57;30.03;;;1.50;99.90;;;;;;5114843;28;20181;-68
2022/12/09 03:26:44;;;;;;;46.00;28.53;;;1.50;99.90;;;;;;5113315;28;20169;-68
2022/12/09 03:29:19;;;;;;;52.43;30.50;;;1.50;99.90;;;;;;5114837;28;20192;-68
2022/12/09 03:31:46;;;;;;;48.00;28.50;;;1.50;99.90;;;;;;5113128;28;20307;-68
2022/12/09 03:34:16;;;;;;;58.20;29.97;;;1.60;99.90;;;;;;5113445;28;20570;-68
2022/12/09 03:36:44;;;;;;;55.43;30.33;;;1.60;99.90;;;;;;5113292;28;20186;-68
2022/12/09 03:39:13;;;;;;;54.80;30.20;;;1.60;99.90;;;;;;5113992;28;20176;-68
2022/12/09 03:41:55;;;;;;;49.23;28.97;;;1.50;99.90;;;;;;5114369;28;20670;-68
2022/12/09 03:44:40;;;;;;;51.03;29.33;;;1.50;99.90;;;;;;5114745;28;20673;-68
2022/12/09 03:47:08;;;;;;;53.20;29.67;;;1.40;99.90;;;;;;5112935;28;20165;-68
2022/12/09 03:49:34;;;;;;;59.93;31.40;;;1.40;99.90;;;;;;5114245;28;20164;-68
2022/12/09 03:52:14;;;;;;;53.37;29.87;;;1.40;99.90;;;;;;5114046;28;20254;-68
2022/12/09 03:54:40;;;;;;;56.27;30.20;;;1.40;99.90;;;;;;5112803;28;20217;-68
2022/12/09 03:57:11;;;;;;;52.20;29.00;;;1.40;99.90;;;;;;5114680;28;20169;-68
2022/12/09 03:59:37;;;;;;;56.47;29.90;;;1.40;99.90;;;;;;5114522;28;20157;-68
2022/12/09 04:02:05;;;;;;;48.13;28.90;;;1.50;99.90;;;;;;5112747;28;20295;-68
2022/12/09 04:04:32;;;;;;;59.87;31.63;;;1.50;99.90;;;;;;5114042;28;20169;-68
2022/12/09 04:06:59;;;;;;;53.93;30.70;;;1.50;99.90;;;;;;5114239;28;20225;-68
2022/12/09 04:09:24;;;;;;;55.60;29.90;;;1.50;99.90;;;;;;5112520;28;20711;-68
2022/12/09 04:11:50;;;;;;;51.40;28.97;;;1.50;99.90;;;;;;5113977;28;20204;-69
2022/12/09 04:14:16;;;;;;;54.70;29.53;;;1.50;99.90;;;;;;5114374;28;20309;-68
2022/12/09 04:16:43;;;;;;;57.23;31.40;;;1.50;99.90;;;;;;5113785;28;20251;-68
2022/12/09 04:19:09;;;;;;;52.97;28.20;;;1.50;99.90;;;;;;5112735;28;20177;-68
2022/12/09 04:21:35;;;;;;;55.57;31.40;;;1.40;99.90;;;;;;5112609;28;20203;-68
2022/12/09 04:24:00;;;;;;;68.53;34.13;;;1.40;99.90;;;;;;5113779;28;20176;-69
2022/12/09 04:26:26;;;;;;;53.63;31.93;;;1.40;99.90;;;;;;5113981;28;20565;-68
2022/12/09 04:28:52;;;;;;;57.17;31.23;;;1.40;99.90;;;;;;5114315;28;20188;-68
2022/12/09 04:31:19;;;;;;;57.57;32.17;;;1.50;99.90;;;;;;5113942;28;20206;-68
2022/12/09 04:33:45;;;;;;;52.70;30.03;;;1.50;99.90;;;;;;5112546;28;20204;-68
2022/12/09 04:36:14;;;;;;;52.87;30.83;;;1.50;99.90;;;;;;5113699;28;20169;-68
2022/12/09 04:38:41;;;;;;;56.60;32.37;;;1.50;99.90;;;;;;5112429;28;20216;-68
2022/12/09 04:41:07;;;;;;;53.33;31.20;;;1.50;99.90;;;;;;5114070;28;20683;-69
2022/12/09 04:43:34;;;;;;;57.67;30.13;;;1.50;99.90;;;;;;5113846;28;20183;-69
2022/12/09 04:46:02;;;;;;;52.20;30.10;;;1.50;99.90;;;;;;5112329;28;20184;-68
2022/12/09 04:48:29;;;;;;;53.73;31.40;;;1.50;99.90;;;;;;5112210;28;20204;-69
2022/12/09 04:50:56;;;;;;;58.33;32.83;;;1.50;99.90;;;;;;5114727;28;20172;-69
2022/12/09 04:53:23;;;;;;;66.33;33.97;;;1.40;99.90;;;;;;5116211;28;20552;-69
2022/12/09 04:55:49;;;;;;;63.80;33.50;;;1.40;99.90;;;;;;5117524;28;20176;-69
2022/12/09 04:58:14;;;;;;;58.47;33.07;;;1.40;99.90;;;;;;5117341;28;20251;-69
2022/12/09 05:00:40;;;;;;;61.23;32.20;;;1.40;99.90;;;;;;5117283;28;20524;-69
2022/12/09 05:03:06;;;;;;;65.00;34.17;;;1.40;99.90;;;;;;5117273;28;20694;-69
2022/12/09 05:05:31;;;;;;;64.63;31.80;;;1.40;99.90;;;;;;5117214;28;20598;-69
2022/12/09 05:07:57;;;;;;;68.10;33.87;;;1.40;99.90;;;;;;5115774;28;20204;-69
2022/12/09 05:10:23;;;;;;;62.67;35.10;;;1.40;99.90;;;;;;5117011;28;20188;-69
2022/12/09 05:12:48;;;;;;;67.83;34.00;;;1.40;99.90;;;;;;5117077;28;20188;-69
2022/12/09 05:15:14;;;;;;;66.47;34.03;;;1.40;99.90;;;;;;5115742;28;20218;-69
2022/12/09 05:17:40;;;;;;;59.30;34.73;;;1.40;99.90;;;;;;5115623;28;20181;-69
2022/12/09 05:20:07;;;;;;;64.03;35.33;;;1.40;99.90;;;;;;5117208;28;20237;-70
2022/12/09 05:22:33;;;;;;;64.60;33.17;;;1.40;99.90;;;;;;5116779;28;20188;-69
2022/12/09 05:24:59;;;;;;;49.10;31.47;;;1.40;99.90;;;;;;5116960;27;20180;-69
2022/12/09 05:27:25;;;;;;;63.23;33.50;;;1.50;99.90;;;;;;5115342;28;20208;-69
2022/12/09 05:29:50;;;;;;;58.93;31.87;;;1.50;99.90;;;;;;5116800;28;20165;-69
2022/12/09 05:32:16;;;;;;;59.10;31.73;;;1.50;99.90;;;;;;5116779;28;20192;-69
2022/12/09 05:34:42;;;;;;;61.47;32.93;;;1.50;99.90;;;;;;5117009;28;20176;-69
2022/12/09 05:37:12;;;;;;;62.97;33.60;;;1.60;99.90;;;;;;5115352;28;20189;-69
2022/12/09 05:39:37;;;;;;;59.53;34.30;;;1.60;99.90;;;;;;5115180;28;20191;-69
2022/12/09 05:42:03;;;;;;;56.53;32.27;;;1.60;99.90;;;;;;5115540;28;20193;-69
2022/12/09 05:44:29;;;;;;;63.83;34.63;;;1.60;99.90;;;;;;5116741;28;20172;-69
2022/12/09 05:46:56;;;;;;;60.17;32.70;;;1.60;99.90;;;;;;5116273;28;20596;-69
2022/12/09 05:49:21;;;;;;;68.50;34.10;;;1.60;99.90;;;;;;5116552;28;20216;-69
2022/12/09 05:51:47;;;;;;;61.50;35.53;;;1.70;99.90;;;;;;5116335;27;20220;-69
2022/12/09 05:54:13;;;;;;;68.37;37.13;;;1.70;99.90;;;;;;5114897;28;20688;-69
2022/12/09 05:56:39;;;;;;;66.93;36.47;;;1.60;99.90;;;;;;5116136;28;20169;-69
2022/12/09 05:59:04;;;;;;;62.53;34.77;;;1.60;99.90;;;;;;5116035;28;20168;-69
2022/12/09 06:01:30;;;;;;;57.10;33.73;;;1.50;99.90;;;;;;5115528;28;20223;-69
2022/12/09 06:03:56;;;;;;;72.07;36.03;;;1.60;99.90;;;;;;5116564;28;20589;-69
2022/12/09 06:06:28;;;;;;;60.50;34.27;;;1.60;99.90;;;;;;5114747;28;20259;-69
2022/12/09 06:08:59;;;;;;;71.63;35.00;;;1.60;99.90;;;;;;5116234;28;20259;-69
2022/12/09 06:11:25;;;;;;;63.23;35.63;;;1.60;99.90;;;;;;5115985;28;20239;-69
2022/12/09 06:13:52;;;;;;;64.80;34.00;;;1.60;99.90;;;;;;5114537;28;20183;-69
2022/12/09 06:16:20;;;;;;;65.30;34.23;;;1.60;99.90;;;;;;5115696;28;20194;-69
2022/12/09 06:18:47;;;;;;;52.93;32.10;;;1.60;99.90;;;;;;5115887;28;20200;-69
2022/12/09 06:21:14;;;;;;;64.43;30.93;;;1.70;99.90;;;;;;5115893;28;20246;-69
2022/12/09 06:23:41;;;;;;;61.60;32.80;;;1.70;99.90;;;;;;5115691;28;20547;-69
2022/12/09 06:26:13;;;;;;;59.37;33.07;;;1.70;99.90;;;;;;5114291;28;20222;-69
2022/12/09 06:28:39;;;;;;;63.63;34.90;;;1.70;99.90;;;;;;5114277;28;20213;-69
2022/12/09 06:31:04;;;;;;;60.40;35.00;;;1.70;99.90;;;;;;5115691;28;20187;-69
2022/12/09 06:33:30;;;;;;;63.80;34.07;;;1.70;99.90;;;;;;5114188;28;20200;-69
2022/12/09 06:36:03;;;;;;;59.90;32.70;;;1.70;99.90;;;;;;5115516;28;20182;-69
2022/12/09 06:38:28;;;;;;;61.07;32.93;;;1.70;99.90;;;;;;5110405;28;20280;-69
2022/12/09 06:40:55;;;;;;;61.87;33.47;;;1.70;99.90;;;;;;5095086;28;20247;-67
2022/12/09 06:43:21;;;;;;;55.87;33.27;;;1.70;99.90;;;;;;5093547;28;20177;-67
2022/12/09 06:45:46;;;;;;;57.20;31.90;;;1.70;99.90;;;;;;5095114;28;20184;-68
2022/12/09 06:48:12;;;;;;;53.77;29.87;;;1.70;99.90;;;;;;5094631;28;20204;-67
2022/12/09 06:50:38;;;;;;;56.23;33.27;;;1.70;99.90;;;;;;5094709;28;20252;-67
2022/12/09 06:53:04;;;;;;;61.77;34.53;;;1.70;99.90;;;;;;5093328;28;20189;-67
2022/12/09 06:55:30;;;;;;;55.77;31.13;;;1.70;99.90;;;;;;5094571;28;20215;-68
2022/12/09 06:57:58;;;;;;;65.87;34.43;;;1.60;99.90;;;;;;5094544;28;20184;-68
2022/12/09 07:00:24;;;;;;;54.43;30.53;;;1.60;99.90;;;;;;5093397;28;20184;-69
2022/12/09 07:02:51;;;;;;;62.20;33.83;;;1.60;99.90;;;;;;5093015;28;20557;-69
2022/12/09 07:05:16;;;;;;;61.20;32.37;;;1.50;99.90;;;;;;5093141;28;20710;-69
2022/12/09 07:07:43;;;;;;;58.57;32.03;;;1.50;99.90;;;;;;5093189;28;20200;-69
2022/12/09 07:10:10;;;;;;;62.03;32.80;;;1.50;99.90;;;;;;5110917;28;20196;-70
2022/12/09 07:12:35;;;;;;;56.07;31.57;;;1.50;99.90;;;;;;5112780;28;20223;-69
2022/12/09 07:15:01;;;;;;;64.03;32.53;;;1.60;99.90;;;;;;5114795;28;20616;-70
2022/12/09 07:17:27;;;;;;;54.23;30.87;;;1.50;99.90;;;;;;5114611;28;20653;-69
2022/12/09 07:19:52;;;;;;;63.27;34.33;;;1.60;99.90;;;;;;5113235;28;20200;-70
2022/12/09 07:22:18;;;;;;;65.10;34.93;;;1.50;99.90;;;;;;5114994;28;20275;-70
2022/12/09 07:24:44;;;;;;;65.00;32.87;;;1.50;99.90;;;;;;5114785;28;20526;-70
2022/12/09 07:27:13;;;;;;;58.97;32.73;;;1.50;99.90;;;;;;5113149;28;20178;-71
2022/12/09 07:29:39;;;;;;;64.27;34.97;;;1.50;99.90;;;;;;5114542;28;20204;-70
2022/12/09 07:32:05;;;;;;;62.30;33.10;;;1.50;99.90;;;;;;5114271;28;20746;-70
2022/12/09 07:34:31;;;;;;;56.23;31.60;;;1.40;99.90;;;;;;5113198;28;20208;-70
2022/12/09 07:36:56;;;;;;;61.40;33.10;;;1.40;99.90;;;;;;5114626;28;20204;-70
2022/12/09 07:39:22;;;;;;;62.10;34.33;;;1.50;99.90;;;;;;5114437;28;20188;-70
2022/12/09 07:41:53;;;;;;;55.97;32.80;;;1.50;99.90;;;;;;5114367;28;20196;-70
2022/12/09 07:44:19;;;;;;;66.13;34.00;;;1.50;99.90;;;;;;5114455;28;20251;-70
2022/12/09 07:46:45;;;;;;;52.93;32.23;;;1.50;99.90;;;;;;5116052;28;20200;-70
2022/12/09 07:49:11;;;;;;;54.73;32.03;;;1.50;99.90;;;;;;5115752;28;20200;-70
2022/12/09 07:51:37;;;;;;;58.87;33.93;;;1.50;99.90;;;;;;5115721;28;20224;-69
2022/12/09 07:54:03;;;;;;;55.20;32.13;;;1.50;99.90;;;;;;5113288;28;20215;-70
2022/12/09 07:56:29;;;;;;;57.30;31.53;;;1.40;99.90;;;;;;5114136;28;20192;-70
2022/12/09 07:58:57;;;;;;;57.37;32.47;;;1.40;99.90;;;;;;5113268;28;20199;-70
2022/12/09 08:01:25;;;;;;;62.77;33.90;;;1.40;99.90;;;;;;5114076;28;20218;-69
2022/12/09 08:03:52;;;;;;;62.10;32.73;;;1.30;99.90;;;;;;5112945;28;20594;-69
2022/12/09 08:06:21;;;;;;;64.33;35.17;;;1.30;99.90;;;;;;5114121;28;20198;-69
2022/12/09 08:08:47;;;;;;;57.83;32.40;;;1.20;99.90;;;;;;5112681;28;20294;-69
2022/12/09 08:11:16;;;;;;;58.53;32.27;;;1.20;99.90;;;;;;5114022;28;20622;-69
2022/12/09 08:13:42;;;;;;;59.07;33.60;;;1.20;99.90;;;;;;5113986;28;20640;-70
2022/12/09 08:16:10;;;;;;;57.27;31.97;;;1.10;99.90;;;;;;5114216;28;20177;-69
2022/12/09 08:18:35;;;;;;;62.40;33.77;;;1.00;99.90;;;;;;5112544;28;20673;-69
2022/12/09 08:21:07;;;;;;;53.93;32.17;;;0.90;99.90;;;;;;5112585;28;20214;-69
2022/12/09 08:23:33;;;;;;;56.60;31.40;;;1.00;99.90;;;;;;5114130;28;20173;-69
2022/12/09 08:25:59;;;;;;;52.50;33.40;;;1.00;99.90;;;;;;5118057;28;20172;-69
2022/12/09 08:28:25;;;;;;;54.37;32.90;;;1.00;99.90;;;;;;5118076;28;20192;-69
2022/12/09 08:30:51;;;;;;;56.40;31.13;;;1.00;99.90;;;;;;5117991;28;20179;-69
2022/12/09 08:33:17;;;;;;;58.87;32.80;;;1.00;99.90;;;;;;5117802;28;20199;-70
2022/12/09 08:35:43;;;;;;;55.90;32.43;;;1.10;99.90;;;;;;5116577;28;20173;-69
2022/12/09 08:38:09;;;;;;;53.90;33.33;;;1.10;99.90;;;;;;5117671;28;20176;-69
2022/12/09 08:40:36;;;;;;;49.93;33.13;;;1.10;99.90;;;;;;5117729;28;20617;-69
2022/12/09 08:43:07;;;;;;;59.27;33.00;;;1.10;99.90;;;;;;5117864;28;20224;-69
2022/12/09 08:45:36;;;;;;;60.23;34.67;;;1.10;99.90;;;;;;5116225;28;20181;-69
2022/12/09 08:48:01;;;;;;;61.43;33.67;;;1.10;99.90;;;;;;5117415;28;20200;-69
2022/12/09 08:50:27;;;;;;;59.17;33.97;;;1.10;99.90;;;;;;5116245;28;20184;-69
2022/12/09 08:52:53;;;;;;;59.43;33.43;;;1.10;99.90;;;;;;5116249;28;20660;-69
2022/12/09 08:55:18;;;;;;;60.73;33.60;;;1.10;99.90;;;;;;5117524;28;20535;-70
2022/12/09 08:57:44;;;;;;;65.27;33.17;;;1.10;99.90;;;;;;5117544;28;20187;-70
2022/12/09 09:00:10;;;;;;;53.07;32.23;;;1.10;99.90;;;;;;5116179;28;20181;-70
2022/12/09 09:02:36;;;;;;;59.87;33.23;;;1.10;99.90;;;;;;5117183;28;20192;-70
2022/12/09 09:05:02;;;;;;;55.50;33.20;;;1.10;99.90;;;;;;5116080;28;20176;-69
2022/12/09 09:07:29;;;;;;;55.20;32.17;;;1.10;99.90;;;;;;5117366;28;20663;-70
2022/12/09 09:09:55;;;;;;;59.30;33.60;;;1.20;99.90;;;;;;5123038;27;20195;-70
2022/12/09 09:12:21;;;;;;;49.70;31.30;;;1.20;99.90;;;;;;5139727;27;20233;-70
2022/12/09 09:14:46;;;;;;;54.60;34.37;;;1.20;99.90;;;;;;5165627;27;20190;-70
2022/12/09 09:17:12;;;;;;;64.10;35.00;;;1.20;99.90;;;;;;5158478;27;20187;-73
2022/12/09 09:19:38;;;;;;;73.43;35.80;;;1.20;99.90;;;;;;5157522;27;20658;-70
2022/12/09 09:22:03;;;;;;;61.63;35.43;;;1.20;99.90;;;;;;5167354;27;20213;-70
2022/12/09 09:24:30;;;;;;;59.00;32.43;;;1.20;99.90;;;;;;5154718;27;20200;-70
2022/12/09 09:26:56;;;;;;;63.23;33.90;;;1.20;99.90;;;;;;5174006;27;20645;-70
2022/12/09 09:29:22;;;;;;;53.10;32.10;;;1.30;99.90;;;;;;5154069;27;20241;-69
2022/12/09 09:31:52;;;;;;;64.47;35.93;;;1.30;99.90;;;;;;5141963;27;20716;-70
2022/12/09 09:36:50;;;;;;;65.17;34.57;;;1.40;99.90;;;;;;5151511;27;20302;-68
2022/12/09 09:39:18;;;;;;;66.17;35.20;;;1.40;99.90;;;;;;5135741;27;20200;-68
2022/12/09 09:41:51;;;;;;;64.13;37.50;;;1.40;99.90;;;;;;5129904;28;20278;-68
2022/12/09 09:44:49;;;;;;;61.83;35.00;;;1.40;99.90;;;;;;5128113;28;20643;-69
2022/12/09 09:47:29;;;;;;;71.87;36.30;;;1.30;99.90;;;;;;5066756;28;20205;-69
2022/12/09 09:50:07;;;;;;;57.33;35.60;;;1.30;99.90;;;;;;5059343;28;20177;-68
2022/12/09 09:52:36;;;;;;;64.30;35.17;;;1.30;99.90;;;;;;5036874;28;20215;-69
2022/12/09 09:55:13;;;;;;;51.67;32.57;;;1.30;99.90;;;;;;5033410;28;20282;-69
2022/12/09 10:00:31;;;;;;;60.00;34.87;;;1.30;99.90;;;;;;5151511;27;20512;-69
2022/12/09 10:03:00;;;;;;;58.60;32.50;;;1.30;99.90;;;;;;5045213;28;20713;-69
2022/12/09 10:06:03;;;;;;;59.13;33.17;;;1.40;99.90;;;;;;5052665;28;1420105;-70
2022/12/09 10:08:48;;;;;;;56.57;33.67;;;1.50;99.90;;;;;;4995651;28;20208;-69
2022/12/09 10:11:31;;;;;;;57.77;33.97;;;1.60;99.90;;;;;;5006654;28;20184;-68
2022/12/09 10:14:21;;;;;;;62.47;34.30;;;1.70;99.90;;;;;;5006402;28;20176;-68
2022/12/09 10:17:01;;;;;;;63.30;35.67;;;1.80;99.90;;;;;;4991114;28;20165;-68
2022/12/09 10:19:30;;;;;;;61.40;34.90;;;1.90;99.90;;;;;;4991217;28;20247;-68
2022/12/09 10:21:58;;;;;;;63.90;36.57;;;2.00;99.90;;;;;;4991166;28;20200;-68
2022/12/09 10:24:32;;;;;;;56.73;33.97;;;2.20;99.90;;;;;;4991153;28;20212;-68
2022/12/09 10:27:07;;;;;;;55.43;35.10;;;2.30;99.90;;;;;;4991349;28;20228;-68
2022/12/09 10:29:44;;;;;;;65.70;37.80;;;2.50;99.90;;;;;;4991387;28;20194;-68
2022/12/09 10:32:20;;;;;;;63.70;37.87;;;2.70;99.90;;;;;;4990995;28;20198;-68
2022/12/09 10:34:46;;;;;;;64.40;35.80;;;2.90;99.90;;;;;;4990911;28;20165;-68
2022/12/09 10:37:33;;;;;;;57.50;33.53;;;3.10;99.90;;;;;;4990905;28;20557;-68
2022/12/09 10:40:08;;;;;;;59.20;36.47;;;3.30;99.90;;;;;;5005915;28;20192;-69
2022/12/09 10:45:54;;;;;;;59.17;34.33;;;3.50;99.90;;;;;;4991053;28;20212;-69
2022/12/09 10:48:41;;;;;;;65.03;36.57;;;3.60;99.90;;;;;;4990720;28;20175;-69
2022/12/09 10:51:14;;;;;;;51.80;31.00;;;3.70;99.90;;;;;;4990909;28;20680;-68
2022/12/09 10:54:09;;;;;;;44.47;28.53;;;3.60;99.90;;;;;;5005677;28;20173;-69
2022/12/09 10:56:38;;;;;;;45.07;27.07;;;3.80;99.90;;;;;;4976578;28;20184;-68
2022/12/09 10:59:21;;;;;;;45.90;28.70;;;3.90;99.90;;;;;;4990401;28;20251;-68
2022/12/09 11:01:53;;;;;;;44.23;28.10;;;4.00;99.90;;;;;;4990291;28;20200;-68
2022/12/09 11:04:43;;;;;;;47.37;29.50;;;4.00;99.90;;;;;;4990418;28;20319;-68
2022/12/09 11:07:11;;;;;;;47.70;30.53;;;4.10;99.90;;;;;;4997334;28;20199;-70
2022/12/09 11:09:58;;;;;;;43.80;30.13;;;3.90;99.90;;;;;;5025220;28;20195;-69
2022/12/09 11:12:27;;;;;;;49.53;30.13;;;3.80;99.90;;;;;;5006178;28;20243;-69
2022/12/09 11:15:16;;;;;;;40.90;26.10;;;3.80;99.90;;;;;;5016309;28;20183;-68
2022/12/09 11:17:58;;;;;;;37.73;25.40;;;3.80;99.90;;;;;;5005546;28;20220;-68
2022/12/09 11:20:30;;;;;;;32.30;22.67;;;3.70;99.90;;;;;;5016572;28;20167;-69
2022/12/09 11:23:00;;;;;;;35.03;22.43;;;3.70;99.90;;;;;;5016375;28;20656;-68
2022/12/09 11:25:29;;;;;;;30.53;21.37;;;3.50;99.90;;;;;;5014878;28;20195;-69
2022/12/09 11:28:01;;;;;;;40.30;27.90;;;3.40;99.90;;;;;;5016822;28;20525;-68
2022/12/09 11:30:37;;;;;;;44.10;27.70;;;3.30;99.90;;;;;;5014770;28;20180;-68
2022/12/09 11:33:17;;;;;;;41.77;26.53;;;3.20;99.90;;;;;;4998387;28;20621;-69
2022/12/09 11:35:42;;;;;;;38.43;25.90;;;3.30;99.90;;;;;;5016156;28;20160;-68
2022/12/09 11:38:16;;;;;;;44.80;28.00;;;3.70;99.90;;;;;;5014736;28;20576;-69
2022/12/09 11:40:55;;;;;;;37.83;25.93;;;4.00;99.90;;;;;;5014599;28;20624;-69
2022/12/09 11:43:39;;;;;;;39.73;27.63;;;4.20;99.90;;;;;;4998147;28;20570;-68
2022/12/09 11:46:26;;;;;;;43.63;26.07;;;4.10;99.90;;;;;;5014497;28;20259;-69
2022/12/09 11:48:56;;;;;;;40.47;25.27;;;4.20;99.90;;;;;;5014330;28;20168;-69
2022/12/09 11:51:38;;;;;;;33.17;24.10;;;4.30;99.90;;;;;;5015432;28;20187;-69
2022/12/09 11:54:23;;;;;;;36.53;23.70;;;4.50;99.90;;;;;;5015939;28;20172;-68
2022/12/09 11:56:50;;;;;;;32.23;21.63;;;4.70;99.90;;;;;;5015812;28;20709;-69
2022/12/09 11:59:23;;;;;;;29.47;20.43;;;4.70;99.90;;;;;;5015418;28;20222;-69
2022/12/09 12:01:53;;;;;;;28.20;19.47;;;4.90;99.90;;;;;;5013999;28;20215;-69
2022/12/09 12:04:36;;;;;;;29.03;18.70;;;5.00;99.90;;;;;;5015636;28;20226;-69
2022/12/09 12:07:14;;;;;;;21.60;16.73;;;5.20;99.90;;;;;;4989958;28;20214;-69
2022/12/09 12:09:52;;;;;;;21.37;17.77;;;5.30;99.90;;;;;;5013932;28;20277;-69
2022/12/09 12:12:39;;;;;;;23.73;17.73;;;5.40;99.90;;;;;;5015788;28;20188;-68
2022/12/09 12:15:27;;;;;;;28.80;18.93;;;5.50;99.90;;;;;;5013837;28;20175;-69
2022/12/09 12:17:55;;;;;;;22.87;16.83;;;5.60;99.90;;;;;;5015031;28;20206;-68
2022/12/09 12:20:35;;;;;;;24.70;18.27;;;5.50;99.90;;;;;;4997444;28;20267;-68
2022/12/09 12:23:24;;;;;;;25.80;18.83;;;5.60;99.90;;;;;;5014187;28;20601;-69
2022/12/09 12:26:25;;;;;;;23.37;16.80;;;5.60;99.90;;;;;;5015324;28;20157;-69
2022/12/09 12:29:19;;;;;;;25.30;18.90;;;5.60;99.90;;;;;;4997280;28;20233;-68
2022/12/09 12:31:57;;;;;;;28.20;21.50;;;5.70;99.90;;;;;;4997042;28;20209;-68
2022/12/09 12:34:33;;;;;;;30.73;21.00;;;5.60;99.90;;;;;;5014917;28;20217;-68
2022/12/09 12:37:29;;;;;;;29.33;19.80;;;5.70;99.90;;;;;;5014814;28;20175;-68
2022/12/09 12:39:59;;;;;;;30.83;20.77;;;5.60;99.90;;;;;;5014925;28;20187;-68
2022/12/09 12:42:31;;;;;;;29.37;21.07;;;5.70;99.90;;;;;;4997194;28;20210;-68
2022/12/09 12:48:19;;;;;;;36.87;24.23;;;5.30;99.90;;;;;;5014695;28;20183;-68
2022/12/09 12:50:50;;;;;;;35.10;24.17;;;5.20;99.90;;;;;;5014596;28;20173;-68
2022/12/09 12:53:49;;;;;;;28.27;21.33;;;4.90;99.90;;;;;;5014528;28;20202;-68
2022/12/09 12:56:21;;;;;;;35.47;25.73;;;5.00;99.90;;;;;;5014408;28;20156;-68
2022/12/09 12:59:08;;;;;;;40.97;26.40;;;4.90;99.90;;;;;;5014452;28;20222;-68
2022/12/09 13:01:54;;;;;;;39.83;26.70;;;4.80;99.90;;;;;;5014453;28;20207;-68
2022/12/09 13:04:41;;;;;;;35.13;25.23;;;4.70;99.90;;;;;;5014346;28;20526;-68
2022/12/09 13:07:36;;;;;;;33.83;23.57;;;4.60;99.90;;;;;;5022455;28;20703;-68